Time;durP1;ratioP1;P1;durP2;ratioP2;P2;SDS_P1;SDS_P2;PMS_P1;PMS_P2;Temp;Humidity;BMP_temperature;BMP_pressure;BME280_temperature;BME280_humidity;BME280_pressure;Samples;Min_cycle;Max_cycle;Signal;HPM_P1;HPM_P2
2024/02/21 00:00:05;;;;;;;18.20;5.05;;;;;;;11.58;93.23;101103.19;6205056;23;20012;-67
2024/02/21 00:02:31;;;;;;;12.48;4.50;;;;;;;11.67;92.87;101104.59;6223707;23;20001;-67
2024/02/21 00:04:56;;;;;;;18.17;5.10;;;;;;;11.56;92.93;101105.44;6225732;23;20715;-66
2024/02/21 00:07:22;;;;;;;9.65;4.30;;;;;;;11.71;92.45;101099.28;6215248;23;20490;-66
2024/02/21 00:09:47;;;;;;;14.90;5.22;;;;;;;11.60;93.64;101103.63;6213636;23;20012;-67
2024/02/21 00:12:13;;;;;;;18.30;5.10;;;;;;;11.68;93.39;101094.59;6204009;23;20084;-68
2024/02/21 00:14:40;;;;;;;8.98;4.40;;;;;;;11.52;93.46;101104.56;6208461;23;20032;-66
2024/02/21 00:17:05;;;;;;;10.70;4.15;;;;;;;11.49;95.15;101091.81;6210597;23;20019;-67
2024/02/21 00:19:31;;;;;;;14.55;4.75;;;;;;;11.43;94.78;101093.97;6215680;23;20036;-67
2024/02/21 00:21:56;;;;;;;17.38;5.30;;;;;;;11.46;95.54;101095.19;6203012;23;20038;-67
2024/02/21 00:24:22;;;;;;;10.18;3.80;;;;;;;11.33;95.80;101094.50;6168136;23;20009;-67
2024/02/21 00:26:47;;;;;;;10.07;4.57;;;;;;;11.53;95.00;101085.38;6179051;23;20830;-67
2024/02/21 00:29:13;;;;;;;14.02;5.10;;;;;;;11.33;96.37;101085.63;6178319;23;20016;-67
2024/02/21 00:31:38;;;;;;;14.10;4.53;;;;;;;11.36;97.05;101074.91;6182965;23;20456;-67
2024/02/21 00:34:03;;;;;;;11.32;4.03;;;;;;;11.29;96.26;101069.38;6184129;23;20511;-67
2024/02/21 00:36:29;;;;;;;10.82;4.43;;;;;;;11.27;97.63;101065.44;6174040;23;20098;-66
2024/02/21 00:38:54;;;;;;;12.45;3.88;;;;;;;11.43;97.13;101069.72;6143459;23;20016;-67
2024/02/21 00:41:20;;;;;;;11.05;4.35;;;;;;;11.30;97.26;101062.06;6183280;23;20028;-66
2024/02/21 00:43:45;;;;;;;14.18;5.25;;;;;;;11.28;97.47;101057.03;6175131;23;20017;-66
2024/02/21 00:46:11;;;;;;;15.98;5.60;;;;;;;11.26;96.75;101050.41;6182088;23;20016;-66
2024/02/21 00:48:36;;;;;;;10.15;3.85;;;;;;;11.28;97.46;101046.25;6169617;23;20043;-67
2024/02/21 00:51:02;;;;;;;9.90;4.13;;;;;;;11.32;97.82;101051.72;6158057;23;20013;-67
2024/02/21 00:53:27;;;;;;;13.43;4.30;;;;;;;11.38;97.49;101045.69;6095149;23;20024;-67
2024/02/21 00:55:53;;;;;;;10.93;4.28;;;;;;;11.43;96.83;101040.03;6146101;23;20020;-68
2024/02/21 00:58:18;;;;;;;10.65;4.30;;;;;;;11.59;96.53;101034.63;6100168;23;20091;-67
2024/02/21 01:00:44;;;;;;;10.05;4.10;;;;;;;11.49;97.10;101037.84;6125976;23;20095;-67
2024/02/21 01:03:09;;;;;;;23.73;4.88;;;;;;;11.34;97.21;101038.66;6143824;23;20055;-67
2024/02/21 01:05:35;;;;;;;11.65;4.15;;;;;;;11.50;96.78;101034.81;6130510;23;20032;-67
2024/02/21 01:08:00;;;;;;;8.90;3.25;;;;;;;11.69;95.48;101039.50;6145767;23;20471;-67
2024/02/21 01:10:26;;;;;;;11.45;5.13;;;;;;;11.52;96.82;101029.84;6141466;23;20132;-66
2024/02/21 01:12:51;;;;;;;11.15;4.72;;;;;;;11.55;96.90;101025.66;6154671;23;20448;-67
2024/02/21 01:15:17;;;;;;;12.25;4.95;;;;;;;11.50;96.97;101021.31;6127560;23;20092;-67
2024/02/21 01:17:42;;;;;;;15.75;5.05;;;;;;;11.52;96.27;101023.66;6150571;23;20103;-67
2024/02/21 01:20:08;;;;;;;9.65;4.80;;;;;;;11.41;97.13;101025.34;6116763;23;20013;-65
2024/02/21 01:22:33;;;;;;;13.77;5.20;;;;;;;11.31;98.33;101023.97;6176722;23;20104;-67
2024/02/21 01:25:02;;;;;;;11.68;4.53;;;;;;;11.34;97.48;101006.31;6187279;23;20011;-66
2024/02/21 01:27:27;;;;;;;13.25;4.43;;;;;;;11.48;97.04;101012.00;6186756;23;20638;-67
2024/02/21 01:29:53;;;;;;;14.25;4.60;;;;;;;11.44;97.40;101005.78;6206986;23;20012;-67
2024/02/21 01:32:18;;;;;;;14.38;5.60;;;;;;;11.37;97.75;100998.31;6170597;23;20514;-66
2024/02/21 01:34:44;;;;;;;12.40;5.10;;;;;;;11.34;98.34;101001.69;6170524;23;20103;-66
2024/02/21 01:37:09;;;;;;;14.30;5.38;;;;;;;11.34;98.33;100992.84;6198274;23;20024;-67
2024/02/21 01:39:35;;;;;;;13.65;5.45;;;;;;;11.27;99.21;101000.75;6201567;23;20020;-66
2024/02/21 01:42:00;;;;;;;11.02;4.65;;;;;;;11.37;98.39;100992.91;6209595;23;20466;-66
2024/02/21 01:44:26;;;;;;;16.45;4.97;;;;;;;11.33;98.23;100988.56;6185232;23;20474;-65
2024/02/21 01:46:52;;;;;;;13.52;5.32;;;;;;;11.34;98.80;100985.50;6192830;23;20020;-66
2024/02/21 01:49:20;;;;;;;11.43;4.47;;;;;;;11.31;98.34;100983.53;6180800;23;20092;-66
2024/02/21 01:51:47;;;;;;;15.27;5.75;;;;;;;11.45;98.10;100975.75;6169349;23;20066;-66
2024/02/21 01:54:15;;;;;;;13.65;4.68;;;;;;;11.47;97.71;100970.00;6181923;23;20086;-67
2024/02/21 01:56:41;;;;;;;12.32;5.32;;;;;;;11.31;98.74;100963.88;6193288;23;20456;-66
2024/02/21 01:59:07;;;;;;;18.23;5.40;;;;;;;11.35;98.66;100962.81;6200490;23;20059;-66
2024/02/21 02:01:33;;;;;;;11.10;4.72;;;;;;;11.40;98.96;100951.00;6212771;23;20008;-66
2024/02/21 02:03:59;;;;;;;13.05;4.93;;;;;;;11.46;98.97;100952.25;6197600;23;20577;-66
2024/02/21 02:06:25;;;;;;;13.52;5.13;;;;;;;11.45;99.35;100953.41;6214077;23;20016;-65
2024/02/21 02:08:51;;;;;;;9.85;5.10;;;;;;;11.53;98.61;100945.13;6199633;23;20330;-65
2024/02/21 02:11:16;;;;;;;12.52;5.30;;;;;;;11.45;99.40;100940.69;6202084;23;20020;-66
2024/02/21 02:13:42;;;;;;;14.95;4.93;;;;;;;11.34;99.92;100936.22;6164030;23;20004;-66
2024/02/21 02:16:08;;;;;;;11.63;4.63;;;;;;;11.34;100.00;100920.03;6164724;23;20020;-66
2024/02/21 02:18:34;;;;;;;12.13;4.63;;;;;;;11.33;100.00;100913.06;6155959;23;20967;-67
2024/02/21 02:21:08;;;;;;;12.73;5.18;;;;;;;11.50;100.00;100912.66;6200088;23;20008;-65
2024/02/21 02:23:34;;;;;;;12.10;5.20;;;;;;;11.47;100.00;100905.28;6180411;23;20073;-66
2024/02/21 02:26:00;;;;;;;11.18;4.60;;;;;;;11.37;100.00;100905.84;6146171;23;20009;-65
2024/02/21 02:28:26;;;;;;;13.15;4.07;;;;;;;11.48;100.00;100896.03;6138204;23;20033;-65
2024/02/21 02:30:52;;;;;;;16.05;5.32;;;;;;;11.34;100.00;100887.69;6151593;23;20095;-66
2024/02/21 02:33:18;;;;;;;15.05;4.65;;;;;;;11.14;100.00;100862.63;6139215;23;20040;-67
2024/02/21 02:35:43;;;;;;;9.23;4.63;;;;;;;11.31;100.00;100850.63;6108601;23;20450;-67
2024/02/21 02:38:10;;;;;;;19.90;5.97;;;;;;;11.48;100.00;100850.97;6132837;23;20495;-66
2024/02/21 02:40:36;;;;;;;22.35;5.43;;;;;;;11.34;100.00;100836.47;6153187;23;20113;-66
2024/02/21 02:43:02;;;;;;;16.75;5.82;;;;;;;11.43;100.00;100845.09;6134934;23;20607;-67
2024/02/21 02:45:27;;;;;;;12.43;5.18;;;;;;;11.21;100.00;100824.22;6123825;23;20051;-67
2024/02/21 02:47:54;;;;;;;16.35;5.82;;;;;;;11.35;100.00;100798.34;6133486;23;20009;-67
2024/02/21 02:50:20;;;;;;;13.57;5.63;;;;;;;11.29;100.00;100809.75;6127743;23;20955;-68
2024/02/21 02:52:45;;;;;;;15.68;5.72;;;;;;;11.21;100.00;100813.44;6144942;23;20009;-66
2024/02/21 02:55:11;;;;;;;17.13;6.85;;;;;;;11.35;100.00;100803.75;6147367;23;20008;-67
2024/02/21 02:57:36;;;;;;;15.80;6.82;;;;;;;11.30;100.00;100809.44;6121478;23;20436;-66
2024/02/21 03:00:02;;;;;;;17.60;6.03;;;;;;;11.23;100.00;100792.31;6097632;23;20016;-66
2024/02/21 03:02:28;;;;;;;15.98;6.07;;;;;;;11.08;100.00;100803.94;6124462;23;20813;-67
2024/02/21 03:04:53;;;;;;;16.63;5.50;;;;;;;10.98;100.00;100799.09;6125683;23;20013;-66
2024/02/21 03:07:20;;;;;;;19.70;6.65;;;;;;;11.07;100.00;100805.09;6153487;23;20008;-66
2024/02/21 03:09:45;;;;;;;12.43;5.85;;;;;;;11.12;100.00;100824.44;6178595;23;19997;-65
2024/02/21 03:12:11;;;;;;;15.10;5.38;;;;;;;11.03;100.00;100837.38;6166197;23;20062;-66
2024/02/21 03:14:37;;;;;;;17.65;6.50;;;;;;;11.12;100.00;100824.44;6142770;23;20009;-65
2024/02/21 03:17:03;;;;;;;16.35;6.57;;;;;;;11.17;100.00;100826.84;6163609;23;20063;-65
2024/02/21 03:19:29;;;;;;;15.38;5.35;;;;;;;11.38;100.00;100832.66;6142596;23;20355;-65
2024/02/21 03:21:55;;;;;;;17.13;7.10;;;;;;;11.28;100.00;100840.56;6153307;23;20103;-67
2024/02/21 03:24:20;;;;;;;14.18;5.78;;;;;;;11.26;100.00;100846.31;6111986;23;20013;-67
2024/02/21 03:26:50;;;;;;;18.00;6.25;;;;;;;11.21;100.00;100853.88;6122269;23;20071;-66
2024/02/21 03:29:16;;;;;;;14.45;6.53;;;;;;;11.27;100.00;100849.78;6128786;23;20021;-66
2024/02/21 03:31:43;;;;;;;18.50;5.65;;;;;;;11.14;100.00;100840.25;6142638;23;20083;-67
2024/02/21 03:34:10;;;;;;;13.00;5.78;;;;;;;11.10;100.00;100847.50;6134568;23;20036;-66
2024/02/21 03:36:36;;;;;;;16.73;6.60;;;;;;;11.06;100.00;100850.13;6116974;23;20403;-66
2024/02/21 03:39:02;;;;;;;15.13;6.20;;;;;;;11.13;100.00;100852.19;6149655;23;20005;-66
2024/02/21 03:41:27;;;;;;;16.58;5.75;;;;;;;11.16;100.00;100862.25;6143099;23;20747;-67
2024/02/21 03:43:53;;;;;;;13.98;6.35;;;;;;;11.32;100.00;100854.91;6115217;23;20056;-66
2024/02/21 03:46:18;;;;;;;17.02;6.60;;;;;;;11.30;99.82;100851.78;6105634;23;20325;-67
2024/02/21 03:48:45;;;;;;;22.75;6.47;;;;;;;11.39;99.79;100853.13;6133960;23;20037;-66
2024/02/21 03:51:10;;;;;;;13.65;6.10;;;;;;;11.35;99.02;100846.09;6099865;23;20024;-66
2024/02/21 03:53:36;;;;;;;18.58;6.13;;;;;;;11.19;100.00;100851.53;6123311;23;20013;-67
2024/02/21 03:56:03;;;;;;;12.68;5.03;;;;;;;11.30;100.00;100867.94;6135331;23;20013;-66
2024/02/21 03:58:30;;;;;;;14.02;6.18;;;;;;;11.30;99.77;100843.69;6168950;23;20009;-66
2024/02/21 04:00:55;;;;;;;12.13;4.97;;;;;;;11.35;98.89;100846.88;6165602;23;20088;-66
2024/02/21 04:03:21;;;;;;;13.95;6.47;;;;;;;11.47;98.11;100843.25;6175996;23;20087;-66
2024/02/21 04:05:46;;;;;;;11.40;5.40;;;;;;;11.45;98.42;100837.44;6187364;23;20004;-66
2024/02/21 04:08:12;;;;;;;14.07;5.47;;;;;;;11.53;98.31;100844.53;6187540;23;20059;-66
2024/02/21 04:10:37;;;;;;;16.92;6.43;;;;;;;11.55;98.56;100844.97;6170386;23;20040;-66
2024/02/21 04:13:05;;;;;;;15.55;5.28;;;;;;;11.64;97.82;100843.59;6188481;23;20012;-66
2024/02/21 04:15:30;;;;;;;16.52;6.18;;;;;;;11.56;97.74;100839.19;6155486;23;20396;-66
2024/02/21 04:17:56;;;;;;;13.20;6.15;;;;;;;11.39;99.02;100836.94;6119438;23;20071;-67
2024/02/21 04:20:21;;;;;;;14.45;5.80;;;;;;;11.32;100.00;100839.50;6145575;23;20024;-66
2024/02/21 04:22:47;;;;;;;13.88;6.03;;;;;;;11.17;100.00;100829.56;6189005;23;20017;-66
2024/02/21 04:25:12;;;;;;;15.73;6.43;;;;;;;11.32;100.00;100823.34;6216652;23;20005;-66
2024/02/21 04:27:39;;;;;;;12.52;4.82;;;;;;;11.27;100.00;100812.03;6192786;23;20012;-65
2024/02/21 04:30:05;;;;;;;14.23;5.43;;;;;;;11.45;100.00;100815.88;6182199;23;20011;-66
2024/02/21 04:32:30;;;;;;;16.08;6.10;;;;;;;11.34;100.00;100801.41;6174620;23;20022;-66
2024/02/21 04:34:56;;;;;;;16.63;5.82;;;;;;;10.98;100.00;100794.50;6177139;23;20062;-66
2024/02/21 04:37:21;;;;;;;14.30;5.60;;;;;;;11.09;100.00;100800.13;6200644;23;20008;-66
2024/02/21 04:39:48;;;;;;;15.23;5.90;;;;;;;11.10;100.00;100793.59;6240839;23;20008;-66
2024/02/21 04:42:14;;;;;;;11.43;5.78;;;;;;;11.07;100.00;100795.06;6219397;23;20013;-66
2024/02/21 04:44:39;;;;;;;13.02;5.35;;;;;;;11.06;100.00;100795.44;6231407;23;20005;-66
2024/02/21 04:47:05;;;;;;;14.48;6.28;;;;;;;11.22;100.00;100796.94;6217783;23;20013;-66
2024/02/21 04:49:30;;;;;;;15.35;6.53;;;;;;;11.29;100.00;100801.66;6200453;23;20039;-67
2024/02/21 04:51:56;;;;;;;18.83;5.82;;;;;;;11.38;100.00;100797.63;6189508;23;20355;-66
2024/02/21 04:54:21;;;;;;;11.07;5.65;;;;;;;11.36;100.00;100804.53;6244097;23;20012;-66
2024/02/21 04:56:47;;;;;;;14.05;6.05;;;;;;;11.14;100.00;100799.84;6218680;23;20008;-67
2024/02/21 04:59:12;;;;;;;22.60;6.75;;;;;;;11.08;100.00;100793.16;6219609;23;20487;-66
2024/02/21 05:01:37;;;;;;;17.15;5.88;;;;;;;11.11;100.00;100789.78;6221074;23;20347;-67
2024/02/21 05:04:06;;;;;;;13.75;4.97;;;;;;;11.10;100.00;100790.91;6177474;23;20012;-67
2024/02/21 05:06:34;;;;;;;12.95;5.43;;;;;;;11.03;100.00;100791.53;6200644;23;20023;-67
2024/02/21 05:09:00;;;;;;;13.07;4.90;;;;;;;11.14;100.00;100789.84;6177095;23;20184;-66
2024/02/21 05:11:25;;;;;;;11.88;5.38;;;;;;;11.08;100.00;100788.56;6191828;23;20014;-65
2024/02/21 05:13:51;;;;;;;15.10;5.65;;;;;;;11.11;100.00;100790.53;6205667;23;20012;-66
2024/02/21 05:16:16;;;;;;;18.10;5.72;;;;;;;11.09;100.00;100792.03;6203405;23;20005;-65
2024/02/21 05:18:43;;;;;;;17.60;5.35;;;;;;;11.15;100.00;100780.59;6204585;23;20028;-66
2024/02/21 05:21:08;;;;;;;11.70;4.95;;;;;;;11.13;100.00;100780.19;6216524;23;20013;-67
2024/02/21 05:23:34;;;;;;;10.80;4.70;;;;;;;11.15;100.00;100782.53;6242923;23;20032;-65
2024/02/21 05:25:59;;;;;;;10.32;4.57;;;;;;;10.99;100.00;100781.81;6217482;23;20039;-66
2024/02/21 05:28:25;;;;;;;16.08;5.50;;;;;;;10.99;100.00;100779.13;6195586;23;20012;-66
2024/02/21 05:30:50;;;;;;;14.82;4.53;;;;;;;11.05;100.00;100783.09;6186847;23;20000;-66
2024/02/21 05:33:21;;;;;;;10.23;4.40;;;;;;;11.05;100.00;100793.88;6186441;23;20023;-67
2024/02/21 05:35:48;;;;;;;12.05;5.07;;;;;;;11.08;100.00;100775.09;6185053;23;20020;-67
2024/02/21 05:38:13;;;;;;;10.48;4.45;;;;;;;11.04;100.00;100773.44;6211823;23;20004;-66
2024/02/21 05:40:38;;;;;;;8.95;4.30;;;;;;;11.04;100.00;100785.00;6205461;23;20005;-66
2024/02/21 05:43:04;;;;;;;14.70;5.57;;;;;;;11.10;100.00;100788.19;6207092;23;20062;-66
2024/02/21 05:45:29;;;;;;;8.90;4.28;;;;;;;11.07;100.00;100783.53;6174775;23;20007;-66
2024/02/21 05:47:57;;;;;;;11.52;4.32;;;;;;;10.98;100.00;100777.56;6174631;23;20027;-68
2024/02/21 05:50:23;;;;;;;8.20;3.30;;;;;;;11.03;100.00;100771.91;6185436;23;20119;-67
2024/02/21 05:52:51;;;;;;;8.20;3.70;;;;;;;11.04;100.00;100776.13;6186215;23;20380;-66
2024/02/21 05:55:17;;;;;;;8.77;3.83;;;;;;;11.07;100.00;100765.44;6186500;23;20095;-66
2024/02/21 05:57:43;;;;;;;9.38;3.63;;;;;;;11.19;100.00;100773.38;6177257;23;20943;-67
2024/02/21 06:00:09;;;;;;;8.13;3.67;;;;;;;11.05;100.00;100778.50;6184499;23;20011;-67
2024/02/21 06:02:41;;;;;;;8.13;4.18;;;;;;;11.05;100.00;100775.81;6199050;23;20545;-66
2024/02/21 06:05:07;;;;;;;6.75;3.38;;;;;;;10.99;100.00;100774.53;6176530;23;20009;-67
2024/02/21 06:07:33;;;;;;;6.47;3.38;;;;;;;11.08;100.00;100766.22;6189942;23;20115;-66
2024/02/21 06:10:00;;;;;;;7.15;3.60;;;;;;;11.05;100.00;100775.03;6190480;23;20008;-66
2024/02/21 06:12:25;;;;;;;7.72;2.85;;;;;;;11.06;100.00;100769.28;6199996;23;20036;-68
2024/02/21 06:14:52;;;;;;;4.82;2.42;;;;;;;11.06;100.00;100774.66;6146766;23;20028;-68
2024/02/21 06:17:17;;;;;;;7.20;3.05;;;;;;;11.03;100.00;100791.53;6198712;23;20174;-67
2024/02/21 06:19:44;;;;;;;8.13;3.72;;;;;;;11.11;100.00;100787.84;6184702;23;20020;-68
2024/02/21 06:22:10;;;;;;;4.43;2.47;;;;;;;11.09;100.00;100787.41;6174110;23;20547;-67
2024/02/21 06:24:36;;;;;;;4.97;2.67;;;;;;;11.11;100.00;100787.84;6153277;23;20400;-67
2024/02/21 06:27:08;;;;;;;4.43;2.50;;;;;;;11.31;100.00;100786.72;6119595;23;20099;-67
2024/02/21 06:29:35;;;;;;;6.07;2.60;;;;;;;11.19;100.00;100797.63;6144814;23;20067;-67
2024/02/21 06:32:00;;;;;;;5.10;2.67;;;;;;;11.13;100.00;100784.81;6144742;23;20336;-67
2024/02/21 06:34:26;;;;;;;6.32;2.97;;;;;;;11.04;100.00;100782.31;6151603;23;20452;-67
2024/02/21 06:36:54;;;;;;;6.28;2.58;;;;;;;11.09;100.00;100786.66;6154934;23;20095;-67
2024/02/21 06:39:21;;;;;;;2.90;2.40;;;;;;;11.15;100.00;100766.38;6144206;23;20009;-67
2024/02/21 06:41:47;;;;;;;3.78;2.22;;;;;;;10.98;100.00;100786.44;6117470;23;20032;-67
2024/02/21 06:44:13;;;;;;;4.78;2.38;;;;;;;11.09;100.00;100783.97;6154079;23;20048;-67
2024/02/21 06:46:38;;;;;;;5.03;2.55;;;;;;;11.12;100.00;100780.53;6142958;23;20464;-68
2024/02/21 06:49:04;;;;;;;4.82;2.20;;;;;;;11.20;100.00;100782.25;6145285;23;20041;-68
2024/02/21 06:51:30;;;;;;;5.38;2.25;;;;;;;11.08;100.00;100787.78;6161547;23;20992;-66
2024/02/21 06:53:55;;;;;;;2.75;1.70;;;;;;;11.01;100.00;100785.72;6179433;23;20356;-66
2024/02/21 06:56:28;;;;;;;4.75;2.80;;;;;;;11.02;100.00;100781.88;6181112;23;20440;-66
2024/02/21 06:58:57;;;;;;;5.50;2.53;;;;;;;11.14;100.00;100781.75;6180078;23;20013;-67
2024/02/21 07:01:23;;;;;;;5.78;2.33;;;;;;;11.16;100.00;100792.19;6153111;23;20031;-67
2024/02/21 07:03:49;;;;;;;5.70;2.17;;;;;;;11.21;100.00;100792.66;6188371;23;20349;-67
2024/02/21 07:06:14;;;;;;;4.13;2.45;;;;;;;11.22;100.00;100788.06;6152895;23;20088;-67
2024/02/21 07:08:40;;;;;;;3.85;2.17;;;;;;;11.22;100.00;100793.44;6153946;23;20033;-67
2024/02/21 07:11:06;;;;;;;7.30;2.50;;;;;;;11.17;100.00;100797.19;6189296;23;20024;-66
2024/02/21 07:13:32;;;;;;;2.53;2.08;;;;;;;11.19;100.00;100784.16;6180193;23;20385;-66
2024/02/21 07:15:58;;;;;;;6.55;2.10;;;;;;;11.12;100.00;100796.72;6154324;23;20009;-66
2024/02/21 07:18:25;;;;;;;3.50;1.65;;;;;;;11.30;100.00;100784.38;6182438;23;20329;-67
2024/02/21 07:20:51;;;;;;;4.03;2.03;;;;;;;11.13;100.00;100790.19;6182133;23;20077;-67
2024/02/21 07:23:17;;;;;;;4.93;2.05;;;;;;;11.35;100.00;100790.25;6181420;23;20478;-67
2024/02/21 07:25:42;;;;;;;4.78;2.42;;;;;;;11.28;100.00;100794.72;6190922;23;20088;-67
2024/02/21 07:28:08;;;;;;;3.50;1.60;;;;;;;11.29;100.00;100791.69;6154861;23;20017;-67
2024/02/21 07:30:33;;;;;;;5.03;2.22;;;;;;;11.40;100.00;100789.97;6191219;23;20072;-66
2024/02/21 07:32:59;;;;;;;4.32;2.20;;;;;;;11.54;100.00;100811.81;6191460;23;20769;-67
2024/02/21 07:35:24;;;;;;;2.92;1.58;;;;;;;11.60;100.00;100810.38;6191466;23;20052;-67
2024/02/21 07:37:50;;;;;;;4.50;2.15;;;;;;;11.72;100.00;100801.38;6181721;23;20004;-66
2024/02/21 07:40:16;;;;;;;2.55;1.80;;;;;;;11.75;100.00;100806.03;6155326;23;20088;-66
2024/02/21 07:42:42;;;;;;;3.47;1.77;;;;;;;11.62;100.00;100802.72;6191749;23;20441;-67
2024/02/21 07:45:09;;;;;;;4.32;1.95;;;;;;;11.45;100.00;100808.56;6164352;23;20004;-67
2024/02/21 07:47:35;;;;;;;4.78;2.30;;;;;;;11.49;100.00;100805.94;6191080;23;20100;-66
2024/02/21 07:50:02;;;;;;;3.53;1.98;;;;;;;11.42;100.00;100803.09;6190483;23;20009;-66
2024/02/21 07:52:27;;;;;;;2.72;1.73;;;;;;;11.50;100.00;100812.88;6180782;23;20005;-67
2024/02/21 07:54:53;;;;;;;6.38;1.90;;;;;;;11.52;100.00;100799.81;6155129;23;20071;-66
2024/02/21 07:57:18;;;;;;;4.10;2.50;;;;;;;11.52;100.00;100805.19;6180883;23;20072;-67
2024/02/21 07:59:44;;;;;;;6.97;2.88;;;;;;;11.49;100.00;100792.44;6192241;23;20036;-67
2024/02/21 08:02:10;;;;;;;4.43;2.20;;;;;;;11.45;100.00;100797.78;6193377;23;20012;-67
2024/02/21 08:04:35;;;;;;;3.03;1.92;;;;;;;11.56;100.00;100806.06;6183390;23;20005;-66
2024/02/21 08:07:02;;;;;;;3.95;2.17;;;;;;;11.44;100.00;100806.22;6193523;23;20447;-66
2024/02/21 08:09:28;;;;;;;4.25;2.15;;;;;;;11.52;100.00;100799.81;6193613;23;20415;-67
2024/02/21 08:11:54;;;;;;;3.35;2.10;;;;;;;11.47;100.00;100802.81;6183977;23;20073;-67
2024/02/21 08:14:20;;;;;;;3.15;1.80;;;;;;;11.43;100.00;100810.84;6157048;23;20604;-67
2024/02/21 08:16:46;;;;;;;3.22;1.73;;;;;;;11.41;100.00;100802.31;6192776;23;20069;-67
2024/02/21 08:19:12;;;;;;;3.90;1.92;;;;;;;11.41;100.00;100801.53;6193244;23;20017;-67
2024/02/21 08:21:37;;;;;;;3.42;1.98;;;;;;;11.47;100.00;100797.41;6193506;23;20185;-67
2024/02/21 08:24:03;;;;;;;4.35;2.00;;;;;;;11.57;100.00;100794.13;6166863;23;20009;-67
2024/02/21 08:26:30;;;;;;;2.35;1.40;;;;;;;11.56;100.00;100787.16;6192549;23;20004;-67
2024/02/21 08:29:00;;;;;;;2.97;1.67;;;;;;;11.55;100.00;100796.41;6157033;23;20013;-67
2024/02/21 08:31:31;;;;;;;2.95;1.40;;;;;;;11.63;100.00;100781.91;6183526;23;20041;-67
2024/02/21 08:34:02;;;;;;;2.30;1.30;;;;;;;11.63;100.00;100787.31;6181749;23;20017;-67
2024/02/21 08:36:32;;;;;;;;;;;;;;;11.62;100.00;100778.44;6157503;23;20016;-66
2024/02/21 08:38:58;;;;;;;1.85;1.23;;;;;;;11.58;100.00;100784.91;6156875;23;19912;-68
2024/02/21 08:41:24;;;;;;;2.35;1.50;;;;;;;11.63;100.00;100777.28;6182823;23;20078;-67
2024/02/21 08:43:51;;;;;;;1.65;1.10;;;;;;;11.62;100.00;100780.34;6193807;23;20092;-67
2024/02/21 08:46:16;;;;;;;3.15;1.48;;;;;;;11.61;100.00;100778.81;6191527;23;19997;-67
2024/02/21 08:48:45;;;;;;;2.90;1.40;;;;;;;11.47;100.00;100778.53;6193156;23;20013;-67
2024/02/21 08:51:11;;;;;;;2.60;1.25;;;;;;;11.54;100.00;100784.06;6181345;23;19997;-67
2024/02/21 08:53:38;;;;;;;4.25;1.20;;;;;;;11.66;100.00;100783.91;6156151;23;20020;-67
2024/02/21 08:56:03;;;;;;;2.50;1.30;;;;;;;11.56;100.00;100777.16;6155734;23;20070;-67
2024/02/21 08:58:29;;;;;;;1.80;1.05;;;;;;;11.46;100.00;100772.34;6155776;23;20040;-67
2024/02/21 09:00:54;;;;;;;1.90;1.10;;;;;;;11.50;100.00;100783.19;6181879;23;20016;-68
2024/02/21 09:03:20;;;;;;;7.95;1.45;;;;;;;11.43;100.00;100788.47;6192707;23;20384;-67
2024/02/21 09:05:46;;;;;;;2.00;1.10;;;;;;;11.26;100.00;100776.22;6183556;23;20107;-67
2024/02/21 09:08:12;;;;;;;1.23;1.02;;;;;;;11.44;100.00;100793.50;6183546;23;20076;-67
2024/02/21 09:10:39;;;;;;;3.83;1.27;;;;;;;11.42;100.00;100797.72;6180697;23;20028;-67
2024/02/21 09:13:05;;;;;;;8.05;1.10;;;;;;;11.38;100.00;100786.84;6193395;23;20399;-67
2024/02/21 09:15:32;;;;;;;1.60;1.20;;;;;;;11.57;100.00;100786.06;6192485;23;20040;-67
2024/02/21 09:17:57;;;;;;;2.03;1.13;;;;;;;11.57;100.00;100783.34;6181164;23;20147;-67
2024/02/21 09:20:23;;;;;;;7.45;1.50;;;;;;;11.51;100.00;100780.16;6183001;23;20468;-67
2024/02/21 09:22:48;;;;;;;5.47;1.13;;;;;;;11.49;100.00;100785.13;6182568;23;20063;-67
2024/02/21 09:25:14;;;;;;;3.97;1.20;;;;;;;11.34;100.00;100785.22;6182830;23;20336;-67
2024/02/21 09:27:39;;;;;;;2.80;2.45;;;;;;;11.30;100.00;100787.06;6156279;23;20017;-68
2024/02/21 09:30:06;;;;;;;1.85;1.70;;;;;;;11.55;100.00;100785.63;6192286;23;20096;-67
2024/02/21 09:32:32;;;;;;;2.75;1.20;;;;;;;11.64;100.00;100781.56;6190601;23;20013;-66
2024/02/21 09:34:58;;;;;;;5.88;1.45;;;;;;;11.62;100.00;100774.94;6155933;23;20171;-67
2024/02/21 09:37:24;;;;;;;3.67;1.23;;;;;;;11.50;100.00;100772.41;6181888;23;20017;-67
2024/02/21 09:39:51;;;;;;;4.13;1.30;;;;;;;11.61;100.00;100774.16;6192401;23;20018;-67
2024/02/21 09:42:20;;;;;;;3.08;1.05;;;;;;;11.72;100.00;100769.00;6181081;23;20080;-67
2024/02/21 09:44:46;;;;;;;8.10;1.48;;;;;;;11.77;100.00;100768.69;6179875;23;20009;-68
2024/02/21 09:47:22;;;;;;;3.20;0.98;;;;;;;11.74;100.00;100755.94;6151398;23;20019;-67
2024/02/21 09:49:47;;;;;;;3.35;1.15;;;;;;;11.71;100.00;100762.06;6154096;23;20020;-67
2024/02/21 09:52:15;;;;;;;1.88;1.33;;;;;;;11.70;100.00;100758.56;6178625;23;20021;-67
2024/02/21 09:54:44;;;;;;;1.88;1.15;;;;;;;11.69;100.00;100758.94;6182746;23;20008;-67
2024/02/21 09:57:10;;;;;;;1.45;1.13;;;;;;;11.74;100.00;100753.25;6182353;23;20020;-66
2024/02/21 09:59:35;;;;;;;4.22;1.50;;;;;;;11.77;100.00;100752.50;6155393;23;20013;-67
2024/02/21 10:02:01;;;;;;;1.73;1.20;;;;;;;11.79;100.00;100747.53;6192221;23;20326;-67
2024/02/21 10:04:27;;;;;;;1.67;1.23;;;;;;;11.86;100.00;100763.84;6192280;23;20443;-67
2024/02/21 10:06:53;;;;;;;1.63;0.77;;;;;;;11.87;100.00;100759.22;6192905;23;20112;-67
2024/02/21 10:09:29;;;;;;;1.55;1.15;;;;;;;11.90;100.00;100770.09;6191577;23;20063;-68
2024/02/21 10:11:56;;;;;;;1.38;1.08;;;;;;;11.91;100.00;100755.44;6180694;23;20325;-68
2024/02/21 10:14:22;;;;;;;3.05;0.93;;;;;;;11.78;100.00;100757.56;6166240;23;20028;-67
2024/02/21 10:16:49;;;;;;;2.70;1.45;;;;;;;11.81;100.00;100753.34;6191821;23;20491;-68
2024/02/21 10:19:18;;;;;;;1.88;1.30;;;;;;;11.74;100.00;100756.72;6181944;23;20440;-68
2024/02/21 10:21:44;;;;;;;3.03;1.33;;;;;;;11.76;100.00;100750.97;6182013;23;20001;-67
2024/02/21 10:24:12;;;;;;;4.63;1.52;;;;;;;11.63;100.00;100757.66;6181996;23;20048;-68
2024/02/21 10:26:38;;;;;;;2.58;1.50;;;;;;;11.72;100.00;100742.03;6182389;23;20329;-68
2024/02/21 10:29:04;;;;;;;3.47;1.35;;;;;;;11.85;100.00;100746.09;6181680;23;20031;-67
2024/02/21 10:31:30;;;;;;;2.03;1.33;;;;;;;11.89;100.00;100746.94;6192302;23;20436;-67
2024/02/21 10:33:59;;;;;;;1.75;1.33;;;;;;;11.87;100.00;100743.81;6155775;23;20035;-67
2024/02/21 10:36:24;;;;;;;5.40;2.17;;;;;;;11.86;100.00;100749.56;6190915;23;20013;-67
2024/02/21 10:38:51;;;;;;;6.75;2.17;;;;;;;11.71;100.00;100751.28;6180446;23;20088;-67
2024/02/21 10:41:19;;;;;;;4.97;2.40;;;;;;;11.79;100.00;100736.72;6179575;23;20019;-67
2024/02/21 10:43:51;;;;;;;6.13;2.47;;;;;;;11.73;100.00;100738.97;6191239;23;20023;-67
2024/02/21 10:46:19;;;;;;;;;;;;;;;11.65;100.00;100733.78;6180803;23;20009;-67
2024/02/21 10:48:46;;;;;;;5.80;2.40;;;;;;;11.77;100.00;100728.22;6179594;23;19907;-67
2024/02/21 10:51:20;;;;;;;6.57;2.85;;;;;;;11.84;100.00;100725.66;6154773;23;20009;-67
2024/02/21 10:54:02;;;;;;;10.77;3.08;;;;;;;11.89;100.00;100732.66;6191894;23;20012;-67
2024/02/21 10:56:35;;;;;;;6.57;2.90;;;;;;;11.75;100.00;100730.50;6179910;23;20475;-67
2024/02/21 10:59:02;;;;;;;8.65;3.38;;;;;;;11.67;100.00;100723.44;6191061;23;20012;-67
2024/02/21 11:01:31;;;;;;;7.35;4.10;;;;;;;11.80;100.00;100716.72;6155133;23;20009;-67
2024/02/21 11:04:00;;;;;;;8.15;2.85;;;;;;;11.85;100.00;100713.72;6190400;23;20325;-67
2024/02/21 11:06:27;;;;;;;9.38;3.95;;;;;;;11.90;100.00;100705.31;6181294;23;19993;-67
2024/02/21 11:09:07;;;;;;;5.25;2.85;;;;;;;11.95;100.00;100706.91;6180604;23;20352;-68
2024/02/21 11:11:37;;;;;;;9.00;3.67;;;;;;;11.78;100.00;100698.22;6181821;23;20020;-67